Time;durP1;ratioP1;P1;durP2;ratioP2;P2;SDS_P1;SDS_P2;PMS_P1;PMS_P2;Temp;Humidity;BMP_temperature;BMP_pressure;BME280_temperature;BME280_humidity;BME280_pressure;Samples;Min_cycle;Max_cycle;Signal;HPM_P1;HPM_P2
2022/01/05 00:00:07;;;;;;;13.90;7.50;;;4.50;99.90;;;;;;5139418;27;20171;-66
2022/01/05 00:02:35;;;;;;;13.50;7.50;;;4.40;99.90;;;;;;5141677;27;20136;-66
2022/01/05 00:05:03;;;;;;;16.07;8.63;;;4.40;99.90;;;;;;5158701;27;20136;-66
2022/01/05 00:07:30;;;;;;;18.23;9.80;;;4.40;99.90;;;;;;5158598;27;20151;-66
2022/01/05 00:09:58;;;;;;;16.53;9.33;;;4.40;99.90;;;;;;5158862;27;20136;-66
2022/01/05 00:12:25;;;;;;;17.63;9.93;;;4.40;99.90;;;;;;5159617;27;20131;-66
2022/01/05 00:14:52;;;;;;;17.67;9.37;;;4.40;99.90;;;;;;5139496;27;20533;-66
2022/01/05 00:17:19;;;;;;;20.37;9.87;;;4.40;99.90;;;;;;5158617;27;20155;-66
2022/01/05 00:19:46;;;;;;;17.90;9.47;;;4.30;99.90;;;;;;5157100;27;20160;-66
2022/01/05 00:22:13;;;;;;;20.00;9.47;;;4.30;99.90;;;;;;5141664;27;20216;-66
2022/01/05 00:24:41;;;;;;;18.93;9.93;;;4.30;99.90;;;;;;5139180;27;20147;-66
2022/01/05 00:27:08;;;;;;;18.83;9.57;;;4.20;99.90;;;;;;5156605;27;20143;-66
2022/01/05 00:29:35;;;;;;;19.43;9.73;;;4.20;99.90;;;;;;5140981;27;20160;-66
2022/01/05 00:32:03;;;;;;;20.53;10.00;;;4.20;99.90;;;;;;5158449;27;20168;-66
2022/01/05 00:34:30;;;;;;;23.83;10.37;;;4.20;99.90;;;;;;5140036;27;20388;-66
2022/01/05 00:36:57;;;;;;;20.40;10.33;;;4.20;99.90;;;;;;5139537;27;20210;-66
2022/01/05 00:39:24;;;;;;;22.73;11.37;;;4.20;99.90;;;;;;5159853;27;20120;-66
2022/01/05 00:41:51;;;;;;;24.23;11.77;;;4.20;99.90;;;;;;5140544;27;20156;-66
2022/01/05 00:44:19;;;;;;;22.43;11.40;;;4.20;99.90;;;;;;5156063;27;20159;-66
2022/01/05 00:46:46;;;;;;;23.77;11.17;;;4.20;99.90;;;;;;5139942;27;20146;-66
2022/01/05 00:49:14;;;;;;;20.87;10.50;;;4.20;99.90;;;;;;5140030;27;20167;-66
2022/01/05 00:51:41;;;;;;;20.07;10.77;;;4.20;99.90;;;;;;5141247;27;20144;-66
2022/01/05 00:54:08;;;;;;;20.50;11.20;;;4.20;99.90;;;;;;5156967;27;20152;-66
2022/01/05 00:56:35;;;;;;;19.30;10.00;;;4.20;99.90;;;;;;5157641;27;20160;-66
2022/01/05 00:59:02;;;;;;;20.30;10.67;;;4.20;99.90;;;;;;5158969;27;20139;-66
2022/01/05 01:01:29;;;;;;;18.80;10.53;;;4.20;99.90;;;;;;5139099;27;20155;-65
2022/01/05 01:03:56;;;;;;;18.30;10.13;;;4.30;99.90;;;;;;5159977;27;20124;-66
2022/01/05 01:06:23;;;;;;;21.37;10.80;;;4.30;99.90;;;;;;5140675;27;20170;-66
2022/01/05 01:08:50;;;;;;;18.73;10.17;;;4.30;99.90;;;;;;5157133;27;20140;-66
2022/01/05 01:11:17;;;;;;;19.53;9.77;;;4.30;99.90;;;;;;5140334;27;20258;-66
2022/01/05 01:13:44;;;;;;;19.33;9.47;;;4.40;99.90;;;;;;5139472;27;20148;-66
2022/01/05 01:16:11;;;;;;;19.30;9.93;;;4.40;99.90;;;;;;5141106;27;20139;-66
2022/01/05 01:18:39;;;;;;;18.13;9.30;;;4.40;99.90;;;;;;5140240;27;20163;-66
2022/01/05 01:21:08;;;;;;;18.00;9.37;;;4.40;99.90;;;;;;5159400;27;20154;-66
2022/01/05 01:23:36;;;;;;;16.73;8.93;;;4.40;99.90;;;;;;5141258;27;20271;-66
2022/01/05 01:26:04;;;;;;;17.60;8.87;;;4.40;99.90;;;;;;5156147;27;20242;-66
2022/01/05 01:28:31;;;;;;;15.67;8.00;;;4.50;99.90;;;;;;5139220;27;20158;-66
2022/01/05 01:30:57;;;;;;;15.37;8.33;;;4.40;99.90;;;;;;5139909;27;20135;-66
2022/01/05 01:33:24;;;;;;;13.70;7.80;;;4.40;99.90;;;;;;5158332;27;20393;-66
2022/01/05 01:35:51;;;;;;;15.47;7.57;;;4.40;99.90;;;;;;5141244;27;20151;-66
2022/01/05 01:38:19;;;;;;;16.90;8.57;;;4.40;99.90;;;;;;5139217;27;20152;-66
2022/01/05 01:40:45;;;;;;;15.77;7.63;;;4.50;99.90;;;;;;5158095;27;20120;-66
2022/01/05 01:43:12;;;;;;;16.93;7.50;;;4.50;99.90;;;;;;5139921;27;20177;-66
2022/01/05 01:45:39;;;;;;;13.60;7.17;;;4.50;99.90;;;;;;5156625;27;20131;-65
2022/01/05 01:48:07;;;;;;;14.17;7.13;;;4.50;99.90;;;;;;5139767;27;20136;-66
2022/01/05 01:50:34;;;;;;;15.90;7.90;;;4.60;99.90;;;;;;5140724;27;20175;-66
2022/01/05 01:53:00;;;;;;;16.03;7.83;;;4.60;99.90;;;;;;5140697;27;20162;-66
2022/01/05 01:55:28;;;;;;;13.90;7.73;;;4.60;99.90;;;;;;5141426;27;20189;-66
2022/01/05 01:57:55;;;;;;;16.27;7.80;;;4.60;99.90;;;;;;5140120;27;20393;-66
2022/01/05 02:00:22;;;;;;;14.00;8.23;;;4.70;99.90;;;;;;5139520;27;20180;-66
2022/01/05 02:02:50;;;;;;;15.20;8.23;;;4.70;99.90;;;;;;5140731;27;20137;-66
2022/01/05 02:05:17;;;;;;;16.37;8.47;;;4.70;99.90;;;;;;5139472;27;20143;-66
2022/01/05 02:07:44;;;;;;;20.60;8.93;;;4.80;99.90;;;;;;5140791;27;20159;-66
2022/01/05 02:10:11;;;;;;;18.30;8.90;;;4.70;99.90;;;;;;5141161;27;20174;-66
2022/01/05 02:12:39;;;;;;;16.37;9.37;;;4.80;99.90;;;;;;5141822;27;20409;-66
2022/01/05 02:15:06;;;;;;;16.53;8.63;;;4.80;99.90;;;;;;5140170;27;20429;-66
2022/01/05 02:20:31;;;;;;;20.83;9.80;;;4.90;99.90;;;;;;5124481;27;20148;-66
2022/01/05 02:22:58;;;;;;;19.23;10.50;;;4.90;99.90;;;;;;5159720;27;20149;-66
2022/01/05 02:25:26;;;;;;;23.57;10.80;;;4.90;99.90;;;;;;5140272;27;20159;-66
2022/01/05 02:27:56;;;;;;;24.07;10.97;;;4.90;99.90;;;;;;5159265;27;20202;-66
2022/01/05 02:30:28;;;;;;;22.20;10.67;;;5.00;99.90;;;;;;5140091;27;20197;-66
2022/01/05 02:32:56;;;;;;;26.40;11.50;;;4.90;99.90;;;;;;5141922;27;20151;-67
2022/01/05 02:35:24;;;;;;;23.23;11.53;;;5.00;99.90;;;;;;5157911;27;20148;-66
2022/01/05 02:37:53;;;;;;;25.43;11.83;;;5.00;99.90;;;;;;5142424;27;20149;-66
2022/01/05 02:40:22;;;;;;;27.07;13.40;;;5.00;99.90;;;;;;5141036;27;20141;-67
2022/01/05 02:42:51;;;;;;;25.77;12.83;;;5.00;99.90;;;;;;5159193;27;20180;-67
2022/01/05 02:45:18;;;;;;;26.60;13.03;;;5.00;99.90;;;;;;5158658;27;20143;-66
2022/01/05 02:47:45;;;;;;;29.53;13.93;;;5.10;99.90;;;;;;5140390;27;20144;-66
2022/01/05 02:50:12;;;;;;;25.10;12.63;;;5.10;99.90;;;;;;5161563;27;20177;-67
2022/01/05 02:52:40;;;;;;;28.00;13.10;;;5.10;99.90;;;;;;5158378;27;20405;-66
2022/01/05 02:55:08;;;;;;;28.20;13.10;;;5.20;99.90;;;;;;5141173;27;20190;-67
2022/01/05 02:57:35;;;;;;;31.37;13.87;;;5.20;99.90;;;;;;5141120;27;20204;-67
2022/01/05 03:00:08;;;;;;;32.03;14.03;;;5.20;99.90;;;;;;5159111;27;20116;-67
2022/01/05 03:02:35;;;;;;;30.67;13.40;;;5.20;99.90;;;;;;5159158;27;20144;-67
2022/01/05 03:05:04;;;;;;;30.03;14.70;;;5.20;99.90;;;;;;5159288;27;20116;-67
2022/01/05 03:07:32;;;;;;;28.90;13.93;;;5.20;99.90;;;;;;5159408;27;20118;-67
2022/01/05 03:09:59;;;;;;;28.67;13.60;;;5.30;99.90;;;;;;5156942;27;20152;-67
2022/01/05 03:12:26;;;;;;;30.67;14.67;;;5.30;99.90;;;;;;5159303;27;20526;-67
2022/01/05 03:14:53;;;;;;;30.23;14.37;;;5.30;99.90;;;;;;5156571;27;20172;-66
2022/01/05 03:17:20;;;;;;;28.80;13.97;;;5.30;99.90;;;;;;5158856;27;20168;-67
2022/01/05 03:19:47;;;;;;;28.30;13.83;;;5.30;99.90;;;;;;5142040;27;20156;-67
2022/01/05 03:22:14;;;;;;;29.80;14.20;;;5.30;99.90;;;;;;5157706;27;20398;-67
2022/01/05 03:24:41;;;;;;;31.73;15.17;;;5.30;99.90;;;;;;5139537;27;20137;-67
2022/01/05 03:27:08;;;;;;;34.30;14.97;;;5.30;99.90;;;;;;5140184;27;20381;-67
2022/01/05 03:29:35;;;;;;;30.60;15.60;;;5.30;99.90;;;;;;5140822;27;20144;-67
2022/01/05 03:32:03;;;;;;;30.13;14.90;;;5.30;99.90;;;;;;5159366;27;20138;-67
2022/01/05 03:34:31;;;;;;;31.13;15.80;;;5.40;99.90;;;;;;5141218;27;20166;-67
2022/01/05 03:36:59;;;;;;;34.03;15.80;;;5.40;99.90;;;;;;5140103;27;20160;-67
2022/01/05 03:39:27;;;;;;;31.57;15.67;;;5.40;99.90;;;;;;5141608;27;20195;-67
2022/01/05 03:41:54;;;;;;;32.77;16.33;;;5.40;99.90;;;;;;5157853;27;20211;-67
2022/01/05 03:44:21;;;;;;;30.47;15.70;;;5.40;99.90;;;;;;5158855;27;20165;-67
2022/01/05 03:46:48;;;;;;;34.63;17.50;;;5.40;99.90;;;;;;5139642;27;20159;-67
2022/01/05 03:49:15;;;;;;;35.67;16.93;;;5.40;99.90;;;;;;5157306;27;20169;-67
2022/01/05 03:51:42;;;;;;;31.83;15.80;;;5.50;99.90;;;;;;5140976;27;20151;-67
2022/01/05 03:54:08;;;;;;;32.90;17.13;;;5.50;99.90;;;;;;5140779;27;20158;-67
2022/01/05 03:56:35;;;;;;;35.60;16.23;;;5.50;99.90;;;;;;5159345;27;20384;-67
2022/01/05 03:59:02;;;;;;;32.13;16.03;;;5.50;99.90;;;;;;5159212;27;20121;-68
2022/01/05 04:01:29;;;;;;;29.63;16.83;;;5.50;99.90;;;;;;5141508;27;20158;-67
2022/01/05 04:03:56;;;;;;;34.37;16.53;;;5.60;99.90;;;;;;5160337;27;20133;-66
2022/01/05 04:06:23;;;;;;;36.47;17.97;;;5.60;99.90;;;;;;5139998;27;20148;-67
2022/01/05 04:08:50;;;;;;;33.67;17.00;;;5.60;99.90;;;;;;5158449;27;20156;-67
2022/01/05 04:11:17;;;;;;;34.97;17.97;;;5.60;99.90;;;;;;5158918;27;20180;-67
2022/01/05 04:13:44;;;;;;;35.27;17.33;;;5.60;99.90;;;;;;5158010;27;20222;-67
2022/01/05 04:16:11;;;;;;;33.60;16.60;;;5.60;99.90;;;;;;5139500;27;20193;-67
2022/01/05 04:18:38;;;;;;;32.70;16.73;;;5.60;99.90;;;;;;5156657;27;20157;-67
2022/01/05 04:21:05;;;;;;;36.17;17.03;;;5.60;99.90;;;;;;5141598;27;20145;-67
2022/01/05 04:23:32;;;;;;;31.40;16.43;;;5.60;99.90;;;;;;5139589;27;20145;-66
2022/01/05 04:25:59;;;;;;;33.40;16.93;;;5.60;99.90;;;;;;5141615;27;20212;-66
2022/01/05 04:28:26;;;;;;;30.37;16.30;;;5.60;99.90;;;;;;5139337;27;20148;-66
2022/01/05 04:30:53;;;;;;;30.43;16.27;;;5.60;99.90;;;;;;5156374;27;20537;-67
2022/01/05 04:33:20;;;;;;;31.37;16.30;;;5.50;99.90;;;;;;5141285;27;20155;-67
2022/01/05 04:36:07;;;;;;;32.73;17.30;;;5.50;99.90;;;;;;5158809;27;20149;-66
2022/01/05 04:38:34;;;;;;;33.47;17.57;;;5.50;99.90;;;;;;5156551;27;20465;-66
2022/01/05 04:41:01;;;;;;;32.10;16.17;;;5.50;99.90;;;;;;5159124;27;20203;-66
2022/01/05 04:43:28;;;;;;;33.57;16.83;;;5.50;99.90;;;;;;5157447;27;20156;-67
2022/01/05 04:45:56;;;;;;;32.60;17.33;;;5.50;99.90;;;;;;5156469;27;20251;-66
2022/01/05 04:48:23;;;;;;;30.30;16.60;;;5.50;99.90;;;;;;5158169;27;20414;-66
2022/01/05 04:50:50;;;;;;;35.17;17.93;;;5.50;99.90;;;;;;5139223;27;20140;-66
2022/01/05 04:53:18;;;;;;;29.97;16.47;;;5.50;99.90;;;;;;5156664;27;20203;-67
2022/01/05 04:55:45;;;;;;;31.00;17.17;;;5.60;99.90;;;;;;5140829;27;20164;-66
2022/01/05 04:58:12;;;;;;;32.97;17.00;;;5.50;99.90;;;;;;5158529;27;20139;-67
2022/01/05 05:00:39;;;;;;;32.33;17.17;;;5.50;99.90;;;;;;5139082;27;20408;-66
2022/01/05 05:03:06;;;;;;;30.73;16.47;;;5.60;99.90;;;;;;5156667;27;20141;-66
2022/01/05 05:05:35;;;;;;;29.70;16.23;;;5.60;99.90;;;;;;5140167;27;20147;-67
2022/01/05 05:08:03;;;;;;;32.30;17.20;;;5.60;99.90;;;;;;5159009;27;20391;-66
2022/01/05 05:10:30;;;;;;;29.13;16.03;;;5.60;99.90;;;;;;5138902;27;20193;-67
2022/01/05 05:12:57;;;;;;;29.87;16.07;;;5.50;99.90;;;;;;5139677;27;20478;-66
2022/01/05 05:15:25;;;;;;;32.20;17.20;;;5.50;99.90;;;;;;5139717;27;20151;-66
2022/01/05 05:17:52;;;;;;;29.00;16.60;;;5.50;99.90;;;;;;5139868;27;20461;-67
2022/01/05 05:20:19;;;;;;;31.03;16.23;;;5.50;99.90;;;;;;5160257;27;20176;-67
2022/01/05 05:22:46;;;;;;;31.30;16.37;;;5.50;99.90;;;;;;5157284;27;20140;-66
2022/01/05 05:25:13;;;;;;;30.93;15.93;;;5.50;99.90;;;;;;5157990;27;20186;-67
2022/01/05 05:27:40;;;;;;;30.53;16.00;;;5.50;99.90;;;;;;5158823;27;20112;-66
2022/01/05 05:30:27;;;;;;;27.87;15.57;;;5.50;99.90;;;;;;5140218;27;20146;-67
2022/01/05 05:32:57;;;;;;;28.43;16.40;;;5.50;99.90;;;;;;5140128;27;20498;-66
2022/01/05 05:35:26;;;;;;;26.23;14.30;;;5.50;99.90;;;;;;5141847;27;20148;-67
2022/01/05 05:37:54;;;;;;;26.80;15.67;;;5.50;99.90;;;;;;5139644;27;20193;-66
2022/01/05 05:40:21;;;;;;;27.70;14.93;;;5.50;99.90;;;;;;5140626;27;20145;-66
2022/01/05 05:42:49;;;;;;;26.97;14.70;;;5.50;99.90;;;;;;5158180;27;20149;-67
2022/01/05 05:45:16;;;;;;;28.10;15.53;;;5.50;99.90;;;;;;5140185;27;20454;-66
2022/01/05 05:47:43;;;;;;;25.90;14.17;;;5.50;99.90;;;;;;5140832;27;20156;-66
2022/01/05 05:50:11;;;;;;;24.60;14.20;;;5.50;99.90;;;;;;5159764;27;20116;-66
2022/01/05 05:52:38;;;;;;;24.40;14.03;;;5.50;99.90;;;;;;5142455;27;20478;-66
2022/01/05 05:55:06;;;;;;;28.60;14.43;;;5.50;99.90;;;;;;5161171;27;20164;-66
2022/01/05 05:57:43;;;;;;;25.63;14.20;;;5.50;99.90;;;;;;5140147;27;20167;-66
2022/01/05 06:00:11;;;;;;;25.30;14.60;;;5.50;99.90;;;;;;5141297;27;20153;-66
2022/01/05 06:02:38;;;;;;;26.03;14.17;;;5.50;99.90;;;;;;5141122;27;20220;-67
2022/01/05 06:05:06;;;;;;;25.37;13.67;;;5.60;99.90;;;;;;5159230;27;20168;-66
2022/01/05 06:07:33;;;;;;;24.63;13.77;;;5.50;99.90;;;;;;5141373;27;20439;-66
2022/01/05 06:10:00;;;;;;;26.93;14.40;;;5.60;99.90;;;;;;5140107;27;20509;-67
2022/01/05 06:12:28;;;;;;;26.20;13.57;;;5.60;99.90;;;;;;5159651;27;20112;-66
2022/01/05 06:14:55;;;;;;;23.73;13.23;;;5.60;99.90;;;;;;5140502;27;20255;-67
2022/01/05 06:17:22;;;;;;;24.40;13.57;;;5.60;99.90;;;;;;5139997;27;20171;-66
2022/01/05 06:19:49;;;;;;;23.70;13.90;;;5.50;99.90;;;;;;5140984;27;20522;-69
2022/01/05 06:22:17;;;;;;;24.07;14.00;;;5.60;99.90;;;;;;5139882;27;20165;-67
2022/01/05 06:24:48;;;;;;;23.53;13.57;;;5.50;99.90;;;;;;5156762;27;20491;-67
2022/01/05 06:27:16;;;;;;;24.97;13.67;;;5.60;99.90;;;;;;5159112;27;20243;-66
2022/01/05 06:29:43;;;;;;;22.17;12.70;;;5.60;99.90;;;;;;5142011;27;20194;-66
2022/01/05 06:32:10;;;;;;;23.97;13.37;;;5.60;99.90;;;;;;5159234;27;20145;-67
2022/01/05 06:34:37;;;;;;;21.17;12.87;;;5.50;99.90;;;;;;5157011;27;20496;-67
2022/01/05 06:37:06;;;;;;;20.57;12.77;;;5.60;99.90;;;;;;5140122;27;20501;-66
2022/01/05 06:39:33;;;;;;;21.77;12.90;;;5.50;99.90;;;;;;5158778;27;20164;-66
2022/01/05 06:42:00;;;;;;;20.70;12.33;;;5.50;99.90;;;;;;5140339;27;20148;-67
2022/01/05 06:44:27;;;;;;;21.00;12.93;;;5.50;99.90;;;;;;5140911;27;20160;-66
2022/01/05 06:46:58;;;;;;;21.53;12.00;;;5.50;99.90;;;;;;5140117;27;20133;-67
2022/01/05 06:49:25;;;;;;;20.47;12.10;;;5.50;99.90;;;;;;5141194;27;20224;-66
2022/01/05 06:51:52;;;;;;;18.47;11.30;;;5.50;99.90;;;;;;5140889;27;20176;-66
2022/01/05 06:54:19;;;;;;;19.60;11.63;;;5.60;99.90;;;;;;5160107;27;20335;-66
2022/01/05 06:56:46;;;;;;;21.93;12.33;;;5.50;99.90;;;;;;5157617;27;20476;-66
2022/01/05 06:59:15;;;;;;;19.87;12.67;;;5.50;99.90;;;;;;5159355;27;20147;-66
2022/01/05 07:01:42;;;;;;;20.60;12.20;;;5.50;99.90;;;;;;5140112;27;20138;-66
2022/01/05 07:04:10;;;;;;;20.10;11.97;;;5.50;99.90;;;;;;5139472;27;20155;-67
2022/01/05 07:06:37;;;;;;;21.90;12.73;;;5.50;99.90;;;;;;5139781;27;20172;-66
2022/01/05 07:09:05;;;;;;;21.10;12.10;;;5.50;99.90;;;;;;5159835;27;20136;-66
2022/01/05 07:11:32;;;;;;;22.73;13.33;;;5.60;99.90;;;;;;5140869;27;20142;-66
2022/01/05 07:13:59;;;;;;;22.67;13.20;;;5.60;99.90;;;;;;5140483;27;20157;-66
2022/01/05 07:16:26;;;;;;;21.77;12.17;;;5.50;99.90;;;;;;5159150;27;20145;-66
2022/01/05 07:18:53;;;;;;;22.33;11.67;;;5.60;99.90;;;;;;5159698;27;20135;-66
2022/01/05 07:21:20;;;;;;;24.17;12.77;;;5.50;99.90;;;;;;5140469;27;20151;-67
2022/01/05 07:23:47;;;;;;;22.53;12.20;;;5.50;99.90;;;;;;5158300;27;20121;-66
2022/01/05 07:26:15;;;;;;;22.87;12.47;;;5.50;99.90;;;;;;5156843;27;20495;-66
2022/01/05 07:28:41;;;;;;;23.57;12.90;;;5.50;99.90;;;;;;5156614;27;20156;-66
2022/01/05 07:31:08;;;;;;;22.10;12.83;;;5.50;99.90;;;;;;5156737;27;20159;-67
2022/01/05 07:33:36;;;;;;;21.80;13.17;;;5.50;99.90;;;;;;5158478;27;20175;-67
2022/01/05 07:36:03;;;;;;;23.57;13.30;;;5.50;99.90;;;;;;5139394;27;20188;-66
2022/01/05 07:38:30;;;;;;;23.20;13.07;;;5.50;99.90;;;;;;5140024;27;20185;-67
2022/01/05 07:40:57;;;;;;;25.13;13.23;;;5.50;99.90;;;;;;5157047;27;20524;-66
2022/01/05 07:43:24;;;;;;;21.33;12.80;;;5.60;99.90;;;;;;5139602;27;20147;-66
2022/01/05 07:45:51;;;;;;;21.60;12.60;;;5.50;99.90;;;;;;5139495;27;20190;-66
2022/01/05 07:48:18;;;;;;;22.43;12.87;;;5.50;99.90;;;;;;5140367;27;20148;-67
2022/01/05 07:50:45;;;;;;;24.53;13.17;;;5.50;99.90;;;;;;5159245;27;20142;-66
2022/01/05 07:53:12;;;;;;;21.10;12.67;;;5.50;99.90;;;;;;5138857;27;20156;-66
2022/01/05 07:55:39;;;;;;;20.40;12.00;;;5.50;99.90;;;;;;5139172;27;20144;-66
2022/01/05 07:58:06;;;;;;;20.53;11.93;;;5.60;99.90;;;;;;5139481;27;20215;-66
2022/01/05 08:00:35;;;;;;;20.60;12.57;;;5.50;99.90;;;;;;5139354;27;20141;-66
2022/01/05 08:03:02;;;;;;;20.17;11.93;;;5.60;99.90;;;;;;5160181;27;20125;-67
2022/01/05 08:05:29;;;;;;;21.83;12.70;;;5.60;99.90;;;;;;5139160;27;20152;-66
2022/01/05 08:07:57;;;;;;;22.67;12.27;;;5.60;99.90;;;;;;5156788;27;20559;-66
2022/01/05 08:10:24;;;;;;;20.47;12.10;;;5.60;99.90;;;;;;5139640;27;20183;-66
2022/01/05 08:12:51;;;;;;;23.10;12.30;;;5.60;99.90;;;;;;5156424;27;20150;-66
2022/01/05 08:15:18;;;;;;;21.33;12.63;;;5.60;99.90;;;;;;5138954;27;20144;-67
2022/01/05 08:17:45;;;;;;;21.73;11.87;;;5.60;99.90;;;;;;5156498;27;20386;-66
2022/01/05 08:20:13;;;;;;;21.23;12.43;;;5.60;99.90;;;;;;5157930;27;20152;-66
2022/01/05 08:22:41;;;;;;;21.50;12.63;;;5.60;99.90;;;;;;5138769;27;20537;-67
2022/01/05 08:25:11;;;;;;;21.70;12.20;;;5.60;99.90;;;;;;5155830;27;20160;-66
2022/01/05 08:27:45;;;;;;;20.77;12.03;;;5.60;99.90;;;;;;5139316;27;20157;-66
2022/01/05 08:30:19;;;;;;;20.90;12.23;;;5.60;99.90;;;;;;5141561;27;20409;-67
2022/01/05 08:32:47;;;;;;;22.27;12.70;;;5.60;99.90;;;;;;5139768;27;20167;-66
2022/01/05 08:35:16;;;;;;;21.37;12.73;;;5.60;99.90;;;;;;5158265;27;20122;-66
2022/01/05 08:37:44;;;;;;;22.73;13.27;;;5.60;99.90;;;;;;5138928;27;20148;-66
2022/01/05 08:40:19;;;;;;;22.63;12.73;;;5.60;99.90;;;;;;5138614;27;20499;-67
2022/01/05 08:42:47;;;;;;;23.80;13.60;;;5.60;99.90;;;;;;5158555;27;20155;-66
2022/01/05 08:45:16;;;;;;;24.07;14.10;;;5.60;99.90;;;;;;5141303;27;20159;-66
2022/01/05 08:47:47;;;;;;;28.33;14.63;;;5.60;99.90;;;;;;5158340;27;20117;-67
2022/01/05 08:50:16;;;;;;;26.60;14.57;;;5.60;99.90;;;;;;5159891;27;20220;-67
2022/01/05 08:52:43;;;;;;;28.50;14.70;;;5.60;99.90;;;;;;5139773;27;20185;-66
2022/01/05 08:55:10;;;;;;;25.73;14.30;;;5.70;99.90;;;;;;5138677;27;20184;-66
2022/01/05 08:57:38;;;;;;;27.17;15.03;;;5.60;99.90;;;;;;5156647;27;20195;-66
2022/01/05 09:00:06;;;;;;;29.27;15.20;;;5.70;99.90;;;;;;5157885;27;20218;-66
2022/01/05 09:02:33;;;;;;;29.03;15.27;;;5.70;99.90;;;;;;5157526;27;20122;-66
2022/01/05 09:05:01;;;;;;;27.30;15.17;;;5.70;99.90;;;;;;5139257;27;20145;-66
2022/01/05 09:07:28;;;;;;;27.17;15.07;;;5.70;99.90;;;;;;5139081;27;20556;-66
2022/01/05 09:09:54;;;;;;;26.43;14.93;;;5.70;99.90;;;;;;5139837;27;20144;-66
2022/01/05 09:12:21;;;;;;;28.43;15.10;;;5.70;99.90;;;;;;5139296;27;20550;-66
2022/01/05 09:14:49;;;;;;;26.97;15.20;;;5.70;99.90;;;;;;5138796;27;20540;-66
2022/01/05 09:17:21;;;;;;;27.63;15.07;;;5.70;99.90;;;;;;5155919;27;20571;-66
2022/01/05 09:19:48;;;;;;;26.00;14.63;;;5.80;99.90;;;;;;5159091;27;20124;-66
2022/01/05 09:22:15;;;;;;;26.67;15.10;;;5.80;99.90;;;;;;5139300;27;20152;-66
2022/01/05 09:24:48;;;;;;;22.43;13.77;;;5.90;99.90;;;;;;5138416;27;20204;-66
2022/01/05 09:27:16;;;;;;;28.23;15.47;;;5.90;99.90;;;;;;5157703;27;20122;-66
2022/01/05 09:29:44;;;;;;;25.03;13.97;;;5.90;99.90;;;;;;5139331;27;20413;-66
2022/01/05 09:32:11;;;;;;;24.87;13.77;;;6.00;99.90;;;;;;5139622;27;20511;-66
2022/01/05 09:34:41;;;;;;;28.90;15.37;;;6.00;99.90;;;;;;5155721;27;20132;-66
2022/01/05 09:37:15;;;;;;;25.20;14.10;;;6.00;99.90;;;;;;5156028;27;20160;-66
2022/01/05 09:42:30;;;;;;;23.23;13.77;;;6.10;99.90;;;;;;5156748;27;20179;-66
2022/01/05 09:44:58;;;;;;;24.70;14.07;;;6.00;99.90;;;;;;5156720;27;20232;-66
2022/01/05 09:47:51;;;;;;;22.90;13.63;;;5.90;99.90;;;;;;5157305;27;20141;-67
2022/01/05 09:50:20;;;;;;;27.63;13.70;;;5.90;99.90;;;;;;5148213;27;20172;-67
2022/01/05 09:52:47;;;;;;;25.00;14.27;;;6.00;99.90;;;;;;5140318;27;20485;-66
2022/01/05 09:55:15;;;;;;;27.37;14.20;;;6.00;99.90;;;;;;5158532;27;20152;-66
2022/01/05 09:57:45;;;;;;;23.00;13.97;;;6.00;99.90;;;;;;5158512;27;20136;-66
2022/01/05 10:00:18;;;;;;;25.00;14.10;;;6.00;99.90;;;;;;5156432;27;20163;-66
2022/01/05 10:02:48;;;;;;;25.30;13.27;;;6.10;99.90;;;;;;5138421;27;20523;-66
2022/01/05 10:05:16;;;;;;;23.37;13.67;;;6.10;99.90;;;;;;5159001;27;20403;-66
2022/01/05 10:07:44;;;;;;;23.50;14.10;;;6.10;99.90;;;;;;5157358;27;20183;-66
2022/01/05 10:10:11;;;;;;;20.97;12.90;;;6.20;99.90;;;;;;5157248;27;20502;-67
2022/01/05 10:12:38;;;;;;;23.77;14.13;;;6.20;99.90;;;;;;5156169;27;20189;-66
2022/01/05 10:15:12;;;;;;;24.27;13.33;;;6.20;99.90;;;;;;5155926;27;20176;-67
2022/01/05 10:17:41;;;;;;;23.57;13.67;;;6.20;99.90;;;;;;5138327;27;20407;-66
2022/01/05 10:20:10;;;;;;;24.03;13.87;;;6.20;99.90;;;;;;5139118;27;20190;-66
2022/01/05 10:22:42;;;;;;;23.03;13.43;;;6.20;99.90;;;;;;5138903;27;20182;-66
2022/01/05 10:25:20;;;;;;;22.87;13.23;;;6.20;99.90;;;;;;5139349;27;20175;-67
2022/01/05 10:28:01;;;;;;;23.53;13.57;;;6.20;99.90;;;;;;5156595;27;20171;-66
2022/01/05 10:30:39;;;;;;;21.57;13.10;;;6.20;99.90;;;;;;5140587;27;20140;-66
2022/01/05 10:33:07;;;;;;;24.10;13.90;;;6.20;99.90;;;;;;5157607;27;20413;-66
2022/01/05 10:35:34;;;;;;;23.13;14.23;;;6.20;99.90;;;;;;5158884;27;20135;-66
2022/01/05 10:38:05;;;;;;;23.47;13.07;;;6.30;99.90;;;;;;5157277;27;20191;-66
2022/01/05 10:40:34;;;;;;;25.17;13.13;;;6.20;99.90;;;;;;5159840;27;20505;-66
2022/01/05 10:43:07;;;;;;;24.03;14.17;;;6.30;99.90;;;;;;5139663;27;20162;-66
2022/01/05 10:45:51;;;;;;;23.07;13.50;;;6.20;99.90;;;;;;5139616;27;20153;-66
2022/01/05 10:48:24;;;;;;;23.10;13.47;;;6.20;99.90;;;;;;5139674;27;20136;-66
2022/01/05 10:51:05;;;;;;;22.37;13.27;;;6.30;99.90;;;;;;5139418;27;20154;-66
2022/01/05 10:53:32;;;;;;;24.93;13.53;;;6.30;99.90;;;;;;5139951;27;20148;-66
2022/01/05 10:55:59;;;;;;;24.47;13.60;;;6.30;99.90;;;;;;5140243;27;20178;-66
2022/01/05 10:58:41;;;;;;;22.47;12.93;;;6.30;99.90;;;;;;5141358;27;20154;-66
2022/01/05 11:01:29;;;;;;;22.17;13.40;;;6.30;99.90;;;;;;5158555;27;20237;-66
2022/01/05 11:03:57;;;;;;;21.30;12.40;;;6.40;99.90;;;;;;5140862;27;20487;-66
2022/01/05 11:06:24;;;;;;;24.17;13.23;;;6.30;99.90;;;;;;5159200;27;20156;-66
2022/01/05 11:09:01;;;;;;;20.23;12.80;;;6.40;99.90;;;;;;5139542;27;20154;-66
2022/01/05 11:11:45;;;;;;;22.27;12.27;;;6.30;99.90;;;;;;5157703;27;20150;-66
2022/01/05 11:14:14;;;;;;;18.90;11.53;;;6.20;99.90;;;;;;5158416;27;20424;-66
2022/01/05 11:16:47;;;;;;;20.80;12.70;;;6.20;99.90;;;;;;5158876;27;20176;-66
2022/01/05 11:19:18;;;;;;;22.03;12.63;;;6.30;99.90;;;;;;5140142;27;20175;-66
2022/01/05 11:22:02;;;;;;;24.73;13.07;;;6.30;99.90;;;;;;5141823;27;20156;-66
2022/01/05 11:24:45;;;;;;;24.20;13.00;;;6.20;99.90;;;;;;5140461;27;20158;-67
2022/01/05 11:27:17;;;;;;;21.47;12.60;;;6.30;99.90;;;;;;5141735;27;20380;-66
2022/01/05 11:29:44;;;;;;;22.40;13.07;;;6.20;99.90;;;;;;5159093;27;20127;-66
2022/01/05 11:32:14;;;;;;;22.00;12.83;;;6.20;99.90;;;;;;5139085;27;20141;-66
2022/01/05 11:34:42;;;;;;;23.97;12.97;;;6.20;99.90;;;;;;5158807;27;20155;-65
2022/01/05 11:37:10;;;;;;;21.67;13.80;;;6.10;99.90;;;;;;5139571;27;20416;-66
2022/01/05 11:39:43;;;;;;;23.67;13.77;;;6.10;99.90;;;;;;5139035;27;20187;-65
2022/01/05 11:42:13;;;;;;;23.17;14.17;;;6.10;99.90;;;;;;5139448;27;20151;-65
2022/01/05 11:44:49;;;;;;;23.33;14.03;;;6.10;99.90;;;;;;5139354;27;20160;-66
2022/01/05 11:47:28;;;;;;;24.30;13.77;;;6.00;99.90;;;;;;5158765;27;20114;-66
2022/01/05 11:50:13;;;;;;;25.53;14.60;;;5.90;99.90;;;;;;5139461;27;20382;-66
2022/01/05 11:53:01;;;;;;;25.90;14.40;;;5.90;99.90;;;;;;5158522;27;20159;-66
2022/01/05 11:55:30;;;;;;;27.80;15.10;;;5.90;99.90;;;;;;5141203;27;20181;-66
2022/01/05 11:58:17;;;;;;;28.70;14.90;;;5.80;99.90;;;;;;5139471;27;20194;-66
2022/01/05 12:00:45;;;;;;;26.87;15.00;;;5.90;99.90;;;;;;5157456;27;20497;-66
2022/01/05 12:03:13;;;;;;;28.37;14.87;;;5.80;99.90;;;;;;5140324;27;20186;-65
2022/01/05 12:06:09;;;;;;;27.90;15.40;;;5.80;99.90;;;;;;5141674;27;20145;-66
2022/01/05 12:08:47;;;;;;;30.30;15.60;;;5.70;99.90;;;;;;5114424;28;20153;-66
2022/01/05 12:11:38;;;;;;;29.30;15.40;;;5.80;99.90;;;;;;5113706;28;20208;-66
2022/01/05 12:14:21;;;;;;;28.30;15.20;;;5.70;99.90;;;;;;5114821;28;20148;-65
2022/01/05 12:17:03;;;;;;;28.93;16.13;;;5.70;99.90;;;;;;5114342;28;20168;-65
2022/01/05 12:19:34;;;;;;;26.63;15.47;;;5.70;99.90;;;;;;5115407;28;20148;-65
2022/01/05 12:22:08;;;;;;;30.33;15.83;;;5.70;99.90;;;;;;5116218;28;20216;-65
2022/01/05 12:24:54;;;;;;;29.43;15.53;;;5.60;99.90;;;;;;5113587;28;20121;-66
2022/01/05 12:27:25;;;;;;;29.97;16.23;;;5.50;99.90;;;;;;5099413;28;20168;-65
2022/01/05 12:29:54;;;;;;;30.20;15.77;;;5.50;99.90;;;;;;5113798;28;20177;-65
2022/01/05 12:32:34;;;;;;;26.50;13.73;;;5.50;99.90;;;;;;5114231;28;20160;-65
2022/01/05 12:35:18;;;;;;;22.57;11.97;;;5.50;99.90;;;;;;5114594;28;20382;-65
2022/01/05 12:37:58;;;;;;;21.40;11.93;;;5.50;99.90;;;;;;5114732;28;20196;-65
2022/01/05 12:40:34;;;;;;;20.23;11.20;;;5.50;99.90;;;;;;5113130;28;20176;-65
2022/01/05 12:43:10;;;;;;;19.70;10.97;;;5.50;99.90;;;;;;5113532;28;20209;-65
2022/01/05 12:45:58;;;;;;;18.30;10.30;;;5.50;99.90;;;;;;5133829;27;20175;-65
2022/01/05 12:51:17;;;;;;;19.73;10.53;;;5.50;99.90;;;;;;5139361;27;20151;-65
2022/01/05 12:53:52;;;;;;;19.10;10.77;;;5.50;99.90;;;;;;5140288;27;20163;-65
2022/01/05 12:56:20;;;;;;;18.97;11.07;;;5.40;99.90;;;;;;5159380;27;20132;-65